Time;durP1;ratioP1;P1;durP2;ratioP2;P2;SDS_P1;SDS_P2;PMS_P1;PMS_P2;Temp;Humidity;BMP_temperature;BMP_pressure;BME280_temperature;BME280_humidity;BME280_pressure;Samples;Min_cycle;Max_cycle;Signal;HPM_P1;HPM_P2
2022/10/26 00:00:32;;;;;;;18.27;6.65;;;;;;;12.18;77.75;101257.38;5089292;27;20043;-66
2022/10/26 00:02:58;;;;;;;8.40;5.57;;;;;;;12.01;78.38;101260.00;5088467;27;20073;-66
2022/10/26 00:05:25;;;;;;;8.55;5.53;;;;;;;12.18;77.83;101263.50;5079918;27;20047;-66
2022/10/26 00:07:51;;;;;;;7.47;5.25;;;;;;;12.20;77.91;101259.00;5089508;28;20047;-67
2022/10/26 00:10:20;;;;;;;7.78;4.63;;;;;;;12.09;76.73;101266.56;5089478;28;20050;-66
2022/10/26 00:12:48;;;;;;;13.32;5.43;;;;;;;11.89;77.08;101261.44;5078757;28;20055;-66
2022/10/26 00:15:15;;;;;;;10.57;4.45;;;;;;;11.88;76.86;101269.41;5089090;27;20051;-66
2022/10/26 00:17:42;;;;;;;7.43;4.53;;;;;;;11.69;78.59;101265.00;5088282;27;20504;-66
2022/10/26 00:20:10;;;;;;;10.10;5.43;;;;;;;11.84;78.72;101258.19;5082007;27;20393;-66
2022/10/26 00:22:36;;;;;;;9.00;5.18;;;;;;;11.91;78.21;101254.31;5080011;28;20463;-66
2022/10/26 00:25:03;;;;;;;9.00;5.32;;;;;;;12.00;77.91;101253.88;5089944;27;20055;-66
2022/10/26 00:27:29;;;;;;;7.45;5.05;;;;;;;11.90;76.46;101252.63;5079541;28;20043;-66
2022/10/26 00:29:55;;;;;;;7.20;4.70;;;;;;;11.69;76.03;101254.50;5089438;28;20464;-66
2022/10/26 00:32:22;;;;;;;7.10;4.10;;;;;;;11.46;76.92;101262.59;5086620;27;20055;-66
2022/10/26 00:34:50;;;;;;;10.63;4.07;;;;;;;11.34;78.15;101262.34;5076253;27;20048;-66
2022/10/26 00:37:16;;;;;;;12.85;4.80;;;;;;;11.05;80.07;101259.25;5070114;28;20442;-66
2022/10/26 00:39:42;;;;;;;8.85;5.47;;;;;;;10.60;82.99;101266.56;5068447;28;20044;-66
2022/10/26 00:42:12;;;;;;;11.00;5.43;;;;;;;10.70;83.40;101270.47;5080644;28;20050;-66
2022/10/26 00:44:57;;;;;;;8.73;5.70;;;;;;;10.86;81.97;101268.91;5088533;27;20105;-66
2022/10/26 00:47:35;;;;;;;6.93;4.80;;;;;;;11.00;80.64;101270.91;5081240;27;20074;-66
2022/10/26 00:50:08;;;;;;;8.80;5.07;;;;;;;10.99;79.73;101277.91;5087064;27;20047;-66
2022/10/26 00:52:37;;;;;;;7.80;5.63;;;;;;;11.09;79.40;101267.84;5088683;27;20409;-66
2022/10/26 00:55:05;;;;;;;13.00;4.60;;;;;;;10.87;79.85;101265.34;5085668;27;20064;-66
2022/10/26 00:57:32;;;;;;;11.43;5.43;;;;;;;11.09;79.17;101273.09;5088205;27;20038;-66
2022/10/26 01:00:00;;;;;;;12.10;4.97;;;;;;;10.91;78.85;101268.66;5087428;27;20052;-66
2022/10/26 01:02:27;;;;;;;11.93;4.68;;;;;;;10.70;79.49;101275.72;5097044;27;20108;-66
2022/10/26 01:04:55;;;;;;;11.77;5.68;;;;;;;10.11;82.28;101273.00;5087867;27;20051;-66
2022/10/26 01:07:24;;;;;;;28.33;6.55;;;;;;;10.05;83.95;101275.88;5077967;27;20046;-66
2022/10/26 01:09:51;;;;;;;13.98;6.50;;;;;;;10.12;85.75;101277.31;5087740;27;20047;-66
2022/10/26 01:12:17;;;;;;;15.88;6.70;;;;;;;10.33;84.27;101276.44;5087356;27;20051;-66
2022/10/26 01:14:44;;;;;;;14.68;6.28;;;;;;;10.43;84.15;101284.78;5077458;27;20048;-66
2022/10/26 01:17:26;;;;;;;11.63;5.97;;;;;;;10.42;83.43;101278.66;5088480;28;20048;-66
2022/10/26 01:20:18;;;;;;;15.00;6.32;;;;;;;10.47;84.02;101279.34;5087886;28;20043;-66
2022/10/26 01:22:53;;;;;;;11.95;6.13;;;;;;;10.46;83.82;101275.00;5087135;28;20487;-66
2022/10/26 01:25:39;;;;;;;12.35;6.35;;;;;;;10.53;83.40;101278.25;5076980;28;20565;-66
2022/10/26 01:28:14;;;;;;;10.70;6.55;;;;;;;10.72;83.25;101282.59;5087540;28;20059;-66
2022/10/26 01:30:47;;;;;;;9.13;5.40;;;;;;;10.14;84.89;101278.09;5077478;28;20048;-66
2022/10/26 01:33:22;;;;;;;15.05;5.53;;;;;;;10.45;83.87;101278.56;5086588;27;20130;-66
2022/10/26 01:35:55;;;;;;;12.02;5.35;;;;;;;10.37;84.38;101277.16;5077183;28;20411;-66
2022/10/26 01:38:31;;;;;;;12.75;6.47;;;;;;;10.48;84.52;101273.19;5081061;28;20101;-66
2022/10/26 01:41:03;;;;;;;12.65;5.82;;;;;;;10.61;83.24;101269.09;5078178;28;20067;-66
2022/10/26 01:43:31;;;;;;;;;;;;;;;10.57;82.66;101266.66;5088825;28;20437;-66
2022/10/26 01:46:01;;;;;;;9.00;4.68;;;;;;;10.22;82.10;101268.19;5086374;28;19943;-66
2022/10/26 01:48:29;;;;;;;10.05;5.05;;;;;;;10.35;81.73;101258.88;5077697;28;20205;-66
2022/10/26 01:50:57;;;;;;;8.98;5.32;;;;;;;10.05;83.44;101262.78;5086797;28;20047;-66
2022/10/26 01:53:26;;;;;;;10.30;5.00;;;;;;;10.05;83.04;101268.00;5087774;28;20054;-66
2022/10/26 01:55:54;;;;;;;12.73;5.25;;;;;;;10.14;83.58;101270.22;5077821;28;20131;-66
2022/10/26 01:58:42;;;;;;;17.85;6.75;;;;;;;10.13;84.14;101266.75;5087867;28;20039;-66
2022/10/26 02:01:25;;;;;;;10.68;5.82;;;;;;;10.19;83.69;101270.94;5078205;28;20689;-66
2022/10/26 02:04:04;;;;;;;9.43;5.70;;;;;;;10.22;83.59;101262.94;5104620;28;20040;-66
2022/10/26 02:06:40;;;;;;;13.73;4.82;;;;;;;10.10;82.52;101260.78;5085578;27;20048;-66
2022/10/26 02:09:18;;;;;;;10.73;4.85;;;;;;;10.09;83.52;101261.69;5086691;27;20051;-66
2022/10/26 02:11:47;;;;;;;11.13;4.78;;;;;;;10.11;82.92;101255.50;5091511;27;20615;-67
2022/10/26 02:14:19;;;;;;;8.80;4.95;;;;;;;10.06;82.30;101259.22;5090149;27;20411;-66
2022/10/26 02:16:54;;;;;;;11.48;4.93;;;;;;;9.90;82.57;101260.78;5081384;28;20460;-66
2022/10/26 02:19:31;;;;;;;12.32;6.10;;;;;;;9.85;84.41;101262.72;5088444;27;20036;-66
2022/10/26 02:22:05;;;;;;;9.50;5.45;;;;;;;10.02;84.10;101262.88;5079859;27;20051;-66
2022/10/26 02:24:34;;;;;;;12.32;6.03;;;;;;;10.09;84.61;101264.31;5087955;28;20036;-66
2022/10/26 02:27:04;;;;;;;11.60;5.90;;;;;;;10.37;83.34;101257.06;5071373;28;20048;-66
2022/10/26 02:29:33;;;;;;;10.20;5.53;;;;;;;10.27;80.68;101261.00;5063061;28;20051;-66
2022/10/26 02:32:02;;;;;;;9.15;5.00;;;;;;;10.30;80.47;101257.38;5072199;27;20048;-66
2022/10/26 02:34:30;;;;;;;7.05;4.88;;;;;;;10.45;80.05;101267.22;5091264;28;20097;-66
2022/10/26 02:36:59;;;;;;;11.77;5.65;;;;;;;9.67;82.93;101270.41;5091689;28;20052;-66
2022/10/26 02:39:31;;;;;;;11.07;5.53;;;;;;;10.10;82.24;101263.41;5090063;27;20074;-66
2022/10/26 02:42:00;;;;;;;12.60;6.47;;;;;;;10.06;83.01;101257.44;5080956;28;20104;-66
2022/10/26 02:44:31;;;;;;;149.38;9.88;;;;;;;9.85;82.57;101260.09;5089673;28;20043;-66
2022/10/26 02:46:58;;;;;;;10.05;5.45;;;;;;;9.78;84.63;101257.72;5090998;28;20047;-66
2022/10/26 02:49:26;;;;;;;18.77;6.00;;;;;;;10.03;82.93;101252.34;5080803;28;20051;-66
2022/10/26 02:52:01;;;;;;;15.68;6.32;;;;;;;10.25;82.13;101245.31;5091199;27;20047;-66
2022/10/26 02:54:34;;;;;;;20.15;5.95;;;;;;;10.45;81.15;101246.25;5081332;28;20063;-66
2022/10/26 02:57:07;;;;;;;15.38;6.45;;;;;;;10.47;82.07;101242.63;5092120;28;20573;-66
2022/10/26 02:59:37;;;;;;;10.75;5.65;;;;;;;10.63;81.26;101227.94;5090241;27;20044;-66
2022/10/26 03:02:04;;;;;;;13.65;5.38;;;;;;;10.75;80.32;101237.03;5089306;28;20051;-66
2022/10/26 03:04:34;;;;;;;7.70;5.00;;;;;;;10.68;79.33;101236.44;5090093;28;20498;-66
2022/10/26 03:07:01;;;;;;;18.33;5.45;;;;;;;10.82;79.04;101233.22;5090665;27;20039;-66
2022/10/26 03:09:28;;;;;;;9.90;5.55;;;;;;;10.85;78.90;101222.59;5082061;28;20039;-66
2022/10/26 03:11:54;;;;;;;9.88;4.90;;;;;;;10.87;77.70;101230.38;5089231;27;20056;-66
2022/10/26 03:14:21;;;;;;;11.07;4.90;;;;;;;10.78;77.69;101228.19;5091377;27;20326;-66
2022/10/26 03:16:47;;;;;;;7.30;4.32;;;;;;;10.30;77.65;101224.16;5076242;28;20043;-66
2022/10/26 03:19:14;;;;;;;6.10;3.92;;;;;;;10.04;79.53;101227.84;5068068;28;20052;-66
2022/10/26 03:21:42;;;;;;;7.40;4.63;;;;;;;9.84;81.15;101230.44;5070190;28;20055;-66
2022/10/26 03:24:08;;;;;;;11.77;5.72;;;;;;;10.20;80.87;101231.53;5079756;27;20092;-66
2022/10/26 03:26:35;;;;;;;10.27;5.38;;;;;;;10.43;79.82;101216.59;5089457;28;20044;-66
2022/10/26 03:29:01;;;;;;;11.30;5.75;;;;;;;10.49;78.99;101214.59;5090224;27;20524;-66
2022/10/26 03:31:27;;;;;;;13.25;5.63;;;;;;;9.76;79.60;101225.50;5080757;28;20047;-66
2022/10/26 03:33:54;;;;;;;11.82;5.22;;;;;;;9.55;82.38;101221.13;5089101;28;20059;-66
2022/10/26 03:36:20;;;;;;;9.90;5.93;;;;;;;9.70;82.52;101224.91;5089778;27;20044;-66
2022/10/26 03:38:48;;;;;;;8.82;5.35;;;;;;;9.82;81.15;101221.78;5079742;28;20058;-66
2022/10/26 03:41:14;;;;;;;9.25;5.38;;;;;;;9.67;81.37;101215.41;5087162;27;20051;-66
2022/10/26 03:43:41;;;;;;;8.32;5.50;;;;;;;9.59;81.91;101220.09;5088761;27;20054;-66
2022/10/26 03:46:07;;;;;;;13.55;6.00;;;;;;;9.78;82.04;101220.22;5080458;27;20055;-67
2022/10/26 03:48:34;;;;;;;12.18;6.00;;;;;;;9.93;81.21;101219.59;5089130;28;20069;-67
2022/10/26 03:51:00;;;;;;;12.02;5.47;;;;;;;10.17;79.54;101228.22;5089933;27;20051;-67
2022/10/26 03:53:27;;;;;;;10.15;5.72;;;;;;;10.22;78.44;101228.88;5078733;27;20499;-67
2022/10/26 03:55:54;;;;;;;11.60;5.43;;;;;;;9.91;79.25;101223.16;5089562;28;20047;-67
2022/10/26 03:58:21;;;;;;;9.02;4.80;;;;;;;9.84;79.31;101222.56;5090803;27;20093;-67
2022/10/26 04:00:48;;;;;;;12.20;6.00;;;;;;;9.60;83.07;101219.19;5079799;28;20047;-67
2022/10/26 04:03:14;;;;;;;11.35;5.97;;;;;;;9.52;83.55;101225.63;5105535;28;20104;-67
2022/10/26 04:05:40;;;;;;;11.15;5.95;;;;;;;9.32;83.71;101230.78;5106628;27;20047;-67
2022/10/26 04:08:08;;;;;;;18.52;9.18;;;;;;;9.40;88.86;101224.34;5106628;28;20108;-67
2022/10/26 04:10:34;;;;;;;16.98;8.32;;;;;;;9.51;89.56;101224.78;5106283;28;20491;-67
2022/10/26 04:13:02;;;;;;;18.70;8.20;;;;;;;9.64;90.19;101226.00;5105315;27;20510;-67
2022/10/26 04:15:29;;;;;;;17.95;7.78;;;;;;;10.01;87.17;101222.75;5103139;28;20510;-67
2022/10/26 04:17:56;;;;;;;10.70;6.85;;;;;;;9.86;85.08;101233.84;5107994;27;20507;-67
2022/10/26 04:20:23;;;;;;;16.95;6.22;;;;;;;10.01;83.68;101217.50;5105354;28;20128;-67
2022/10/26 04:22:57;;;;;;;9.25;5.00;;;;;;;10.08;82.68;101231.19;5104268;28;20503;-67
2022/10/26 04:25:23;;;;;;;146.18;9.07;;;;;;;9.87;82.81;101225.06;5106755;28;20050;-66
2022/10/26 04:27:50;;;;;;;13.55;7.45;;;;;;;9.76;85.35;101220.25;5106996;28;20410;-67
2022/10/26 04:30:18;;;;;;;18.92;7.10;;;;;;;9.84;85.69;101216.47;5105840;28;20050;-67
2022/10/26 04:32:44;;;;;;;16.73;7.85;;;;;;;10.03;84.27;101214.81;5105515;27;20104;-67
2022/10/26 04:35:10;;;;;;;19.42;8.40;;;;;;;10.10;85.53;101217.09;5108078;28;20548;-67
2022/10/26 04:37:37;;;;;;;16.70;6.85;;;;;;;10.10;85.26;101214.47;5105617;27;20051;-67
2022/10/26 04:40:04;;;;;;;10.00;5.70;;;;;;;9.84;84.34;101217.34;5106212;28;20035;-67
2022/10/26 04:42:32;;;;;;;12.13;6.38;;;;;;;9.69;84.72;101210.94;5107882;28;20043;-67
2022/10/26 04:44:59;;;;;;;12.13;6.60;;;;;;;9.67;85.66;101214.56;5106194;28;20542;-67
2022/10/26 04:47:27;;;;;;;12.90;6.72;;;;;;;10.01;84.26;101204.41;5105696;27;20084;-67
2022/10/26 04:49:53;;;;;;;14.85;8.35;;;;;;;9.98;86.54;101203.66;5104999;28;20047;-67
2022/10/26 04:52:19;;;;;;;19.95;8.90;;;;;;;10.14;87.91;101205.63;5105787;28;20513;-67
2022/10/26 04:54:46;;;;;;;14.48;7.97;;;;;;;10.07;87.84;101209.38;5106889;28;20047;-67
2022/10/26 04:57:12;;;;;;;14.75;9.18;;;;;;;10.34;87.29;101209.16;5107434;28;20051;-67
2022/10/26 04:59:39;;;;;;;15.70;8.68;;;;;;;10.48;85.79;101197.16;5106731;27;20662;-67
2022/10/26 05:02:05;;;;;;;17.00;8.30;;;;;;;10.21;87.11;101198.34;5106500;28;20048;-67
2022/10/26 05:04:33;;;;;;;14.57;8.15;;;;;;;10.10;88.79;101203.16;5098218;28;20073;-67
2022/10/26 05:06:59;;;;;;;15.00;8.52;;;;;;;10.12;88.94;101201.34;5078756;28;20403;-67
2022/10/26 05:09:26;;;;;;;14.80;7.80;;;;;;;10.18;88.48;101199.31;5088067;27;20583;-67
2022/10/26 05:11:52;;;;;;;22.20;8.65;;;;;;;10.06;89.47;101201.56;5088465;27;20040;-67
2022/10/26 05:14:18;;;;;;;16.63;8.35;;;;;;;10.34;88.18;101210.00;5077711;28;20046;-67
2022/10/26 05:16:45;;;;;;;17.35;8.02;;;;;;;10.59;84.84;101213.25;5087188;28;20431;-67
2022/10/26 05:19:11;;;;;;;15.00;8.05;;;;;;;10.62;84.78;101213.13;5088289;27;20078;-67
2022/10/26 05:21:39;;;;;;;20.35;8.70;;;;;;;9.93;89.68;101209.09;5077217;27;20763;-67
2022/10/26 05:24:06;;;;;;;18.80;8.35;;;;;;;10.09;89.87;101211.91;5086403;27;20039;-67
2022/10/26 05:26:33;;;;;;;15.07;7.97;;;;;;;10.32;87.89;101209.22;5087947;28;20046;-67
2022/10/26 05:28:59;;;;;;;16.42;8.18;;;;;;;10.17;87.78;101207.25;5077704;28;20101;-67
2022/10/26 05:31:26;;;;;;;16.52;7.55;;;;;;;10.03;89.72;101209.56;5087625;28;20039;-67
2022/10/26 05:33:52;;;;;;;15.98;7.95;;;;;;;9.69;91.23;101200.47;5087775;28;20046;-67
2022/10/26 05:36:19;;;;;;;16.55;8.05;;;;;;;9.82;89.24;101210.47;5078214;28;20070;-67
2022/10/26 05:38:47;;;;;;;15.32;7.53;;;;;;;9.69;89.20;101210.94;5086649;28;20059;-67
2022/10/26 05:41:13;;;;;;;14.05;7.28;;;;;;;9.84;88.52;101209.47;5076470;28;20055;-67
2022/10/26 05:43:40;;;;;;;13.70;7.53;;;;;;;9.68;90.52;101206.63;5076702;28;20514;-67
2022/10/26 05:46:06;;;;;;;16.08;8.10;;;;;;;9.21;92.52;101218.13;5087717;28;20096;-66
2022/10/26 05:48:32;;;;;;;18.83;9.15;;;;;;;9.62;91.37;101217.34;5088019;28;20055;-66
2022/10/26 05:51:00;;;;;;;14.90;7.95;;;;;;;10.00;89.80;101214.94;5077926;28;20060;-66
2022/10/26 05:53:26;;;;;;;12.75;7.10;;;;;;;10.03;88.02;101220.03;5088244;28;20509;-66
2022/10/26 05:55:55;;;;;;;22.45;9.40;;;;;;;9.83;89.77;101222.66;5087725;28;20047;-66
2022/10/26 05:58:22;;;;;;;16.73;8.43;;;;;;;10.15;87.93;101223.06;5077565;28;20044;-67
2022/10/26 06:01:02;;;;;;;16.33;8.40;;;;;;;10.37;87.03;101219.50;5086671;28;20180;-66
2022/10/26 06:03:43;;;;;;;15.40;7.93;;;;;;;10.68;85.72;101220.69;5109674;28;20421;-66
2022/10/26 06:06:12;;;;;;;12.80;7.78;;;;;;;10.68;85.63;101225.94;5087525;28;20039;-66
2022/10/26 06:08:41;;;;;;;13.85;7.70;;;;;;;10.64;86.40;101231.41;5087420;28;20496;-67
2022/10/26 06:11:10;;;;;;;16.17;7.78;;;;;;;10.75;84.84;101222.13;5078116;28;20130;-67
2022/10/26 06:13:37;;;;;;;16.73;8.57;;;;;;;10.87;84.10;101220.72;5082862;28;20043;-66
2022/10/26 06:16:20;;;;;;;17.85;8.82;;;;;;;10.33;85.91;101225.78;5087201;28;20495;-67
2022/10/26 06:18:54;;;;;;;17.70;8.95;;;;;;;10.40;86.44;101224.59;5079473;28;20081;-67
2022/10/26 06:21:33;;;;;;;21.05;9.38;;;;;;;10.44;86.28;101232.28;5064439;28;20047;-67
2022/10/26 06:24:08;;;;;;;16.60;9.45;;;;;;;10.61;85.81;101235.00;5084350;28;20051;-67
2022/10/26 06:26:44;;;;;;;16.52;10.15;;;;;;;10.86;84.80;101232.16;5064694;28;20389;-67
2022/10/26 06:29:22;;;;;;;14.43;9.13;;;;;;;11.15;83.74;101236.94;5066023;28;20043;-67
2022/10/26 06:31:49;;;;;;;14.48;8.13;;;;;;;11.22;82.38;101234.88;5068917;28;20052;-67
2022/10/26 06:34:22;;;;;;;18.63;8.82;;;;;;;11.15;82.40;101231.69;5065311;28;20060;-67
2022/10/26 06:36:50;;;;;;;14.48;8.75;;;;;;;10.95;82.29;101247.47;5066733;28;20346;-67
2022/10/26 06:39:17;;;;;;;14.20;7.97;;;;;;;10.65;84.06;101246.22;5069412;27;20113;-66
2022/10/26 06:41:46;;;;;;;13.88;7.68;;;;;;;10.63;84.56;101254.16;5088076;27;20059;-66
2022/10/26 06:44:21;;;;;;;13.15;7.97;;;;;;;10.75;84.82;101242.28;5087174;28;20044;-67
2022/10/26 06:46:51;;;;;;;14.15;8.43;;;;;;;10.89;84.00;101239.03;5076613;28;20043;-67
2022/10/26 06:49:22;;;;;;;14.57;8.35;;;;;;;10.93;84.00;101251.09;5086016;28;20047;-66
2022/10/26 06:51:56;;;;;;;17.20;8.90;;;;;;;10.70;84.91;101249.50;5076553;28;20043;-66
2022/10/26 06:54:29;;;;;;;13.32;8.18;;;;;;;10.97;83.20;101248.28;5086247;28;20431;-67
2022/10/26 06:56:57;;;;;;;18.05;7.70;;;;;;;10.78;83.90;101241.28;5089026;28;20047;-66
2022/10/26 06:59:32;;;;;;;15.35;8.07;;;;;;;11.10;83.24;101240.69;5081300;27;20040;-67
2022/10/26 07:01:58;;;;;;;11.10;7.32;;;;;;;11.04;82.64;101236.59;5090851;27;20043;-66
2022/10/26 07:04:25;;;;;;;14.88;8.15;;;;;;;11.24;82.54;101239.13;5079718;28;20059;-66
2022/10/26 07:06:51;;;;;;;13.65;7.90;;;;;;;11.41;81.83;101243.59;5087872;27;20403;-67
2022/10/26 07:09:17;;;;;;;13.57;7.63;;;;;;;11.50;82.20;101237.91;5084537;27;20078;-66
2022/10/26 07:11:44;;;;;;;17.65;8.15;;;;;;;11.73;82.20;101243.84;5085417;27;20096;-67
2022/10/26 07:14:12;;;;;;;13.55;7.65;;;;;;;11.73;81.93;101243.84;5109647;27;20036;-67
2022/10/26 07:16:38;;;;;;;22.70;9.02;;;;;;;11.53;83.55;101243.00;5110301;27;20499;-66
2022/10/26 07:19:05;;;;;;;17.65;8.95;;;;;;;11.40;86.25;101249.78;5068364;28;20052;-66
2022/10/26 07:21:31;;;;;;;14.15;8.30;;;;;;;11.61;85.08;101245.25;5070916;28;20044;-67
2022/10/26 07:23:57;;;;;;;21.08;9.00;;;;;;;11.65;86.14;101246.81;5070818;27;20085;-67
2022/10/26 07:26:26;;;;;;;13.70;8.85;;;;;;;11.66;85.75;101249.38;5109923;27;20042;-67
2022/10/26 07:28:52;;;;;;;13.25;8.10;;;;;;;11.82;85.18;101246.91;5109703;27;20048;-67
2022/10/26 07:31:20;;;;;;;12.20;8.07;;;;;;;12.15;84.96;101249.66;5104441;27;20051;-67
2022/10/26 07:33:47;;;;;;;15.57;8.48;;;;;;;12.71;83.63;101249.38;5067375;28;20051;-67
2022/10/26 07:36:13;;;;;;;16.27;8.32;;;;;;;12.35;82.98;101256.50;5069503;28;20633;-67
2022/10/26 07:38:39;;;;;;;13.05;7.65;;;;;;;12.18;83.85;101254.75;5078956;28;20051;-67
2022/10/26 07:41:06;;;;;;;12.40;7.90;;;;;;;12.29;83.76;101262.94;5090308;27;20077;-66
2022/10/26 07:43:32;;;;;;;13.30;8.15;;;;;;;12.57;83.34;101265.84;5084141;28;20051;-66
2022/10/26 07:45:59;;;;;;;12.50;7.80;;;;;;;13.02;82.43;101264.38;5088446;28;20483;-66
2022/10/26 07:48:27;;;;;;;12.95;8.07;;;;;;;13.06;82.46;101258.03;5090616;28;20048;-67
2022/10/26 07:50:53;;;;;;;15.60;8.35;;;;;;;13.35;82.29;101259.94;5078922;28;20047;-67
2022/10/26 07:53:19;;;;;;;12.90;8.02;;;;;;;13.50;81.84;101267.00;5088422;28;20047;-67
2022/10/26 07:55:52;;;;;;;18.88;8.00;;;;;;;14.06;80.70;101262.97;5090139;28;20047;-67
2022/10/26 07:58:22;;;;;;;12.65;7.50;;;;;;;14.51;76.21;101270.00;5089789;27;20051;-67
2022/10/26 08:00:48;;;;;;;9.65;7.10;;;;;;;15.02;77.57;101256.28;5087898;28;20039;-66
2022/10/26 08:03:15;;;;;;;9.48;6.85;;;;;;;15.95;72.70;101267.06;5098109;27;20047;-66
2022/10/26 08:05:43;;;;;;;10.70;7.20;;;;;;;16.86;70.81;101263.53;5089808;28;20078;-66
2022/10/26 08:08:09;;;;;;;13.43;6.43;;;;;;;17.27;65.73;101259.75;5088696;28;20085;-67
2022/10/26 08:10:36;;;;;;;11.95;6.90;;;;;;;17.26;65.75;101258.06;5078666;27;20093;-67
2022/10/26 08:13:02;;;;;;;11.20;7.70;;;;;;;17.14;67.57;101266.91;5089727;27;20051;-68
2022/10/26 08:15:28;;;;;;;10.68;6.72;;;;;;;17.92;65.94;101257.66;5088417;28;20048;-67
2022/10/26 08:17:55;;;;;;;9.93;7.13;;;;;;;18.49;63.31;101266.56;5078705;27;20560;-68
2022/10/26 08:20:21;;;;;;;12.60;7.38;;;;;;;18.37;61.46;101267.47;5088827;28;20077;-67
2022/10/26 08:22:49;;;;;;;9.13;6.88;;;;;;;17.07;64.67;101269.13;5086768;28;20422;-67
2022/10/26 08:25:15;;;;;;;10.80;7.57;;;;;;;15.65;69.42;101274.34;5080325;28;20051;-67
2022/10/26 08:27:42;;;;;;;9.85;7.68;;;;;;;15.04;72.55;101272.00;5087085;27;20052;-67
2022/10/26 08:30:09;;;;;;;12.98;8.20;;;;;;;15.33;73.20;101267.59;5085530;28;20040;-67
2022/10/26 08:32:35;;;;;;;11.48;7.25;;;;;;;16.25;70.77;101266.84;5085944;27;20055;-68
2022/10/26 08:35:01;;;;;;;12.80;8.00;;;;;;;16.02;71.58;101267.50;5090136;27;20566;-67
2022/10/26 08:37:28;;;;;;;10.90;7.93;;;;;;;17.10;69.35;101260.97;5096977;27;20051;-68
2022/10/26 08:39:56;;;;;;;10.13;7.40;;;;;;;18.20;65.23;101259.94;5075727;28;20048;-68
2022/10/26 08:42:28;;;;;;;11.65;7.38;;;;;;;18.38;67.45;101253.25;5085049;27;20056;-68
2022/10/26 08:45:01;;;;;;;9.65;7.07;;;;;;;18.46;63.48;101260.63;5087530;27;20047;-68
2022/10/26 08:47:32;;;;;;;9.85;6.93;;;;;;;17.60;66.15;101264.47;5078652;28;20071;-67
2022/10/26 08:50:03;;;;;;;11.38;7.10;;;;;;;16.81;68.08;101259.50;5087406;27;20044;-68
2022/10/26 08:52:43;;;;;;;13.80;7.63;;;;;;;17.83;66.69;101258.34;5088552;28;20444;-68
2022/10/26 08:55:16;;;;;;;11.98;6.93;;;;;;;18.07;64.42;101255.69;5099211;27;20039;-68
2022/10/26 08:57:43;;;;;;;9.40;6.50;;;;;;;17.02;67.22;101258.84;5091394;27;20040;-68
2022/10/26 09:00:15;;;;;;;10.25;6.63;;;;;;;17.90;66.20;101249.81;5077433;28;20046;-68
2022/10/26 09:02:41;;;;;;;13.38;6.43;;;;;;;18.37;64.41;101248.88;5097338;28;20096;-68
2022/10/26 09:05:16;;;;;;;8.43;5.97;;;;;;;19.13;62.55;101253.63;5097241;28;20048;-68
2022/10/26 09:07:54;;;;;;;9.38;5.35;;;;;;;18.32;62.71;101248.41;5088099;28;20419;-68
2022/10/26 09:10:35;;;;;;;9.63;5.97;;;;;;;18.07;65.61;101248.53;5087551;28;20059;-68
2022/10/26 09:13:06;;;;;;;14.88;6.20;;;;;;;18.40;64.38;101253.97;5086708;28;20124;-68
2022/10/26 09:15:43;;;;;;;9.23;5.13;;;;;;;18.36;63.02;101255.19;5072080;27;20051;-68
2022/10/26 09:18:24;;;;;;;11.38;5.22;;;;;;;19.38;63.17;101248.03;5087246;28;20051;-68
2022/10/26 09:21:02;;;;;;;11.80;5.47;;;;;;;20.74;57.65;101253.53;5086891;28;20052;-68
2022/10/26 09:23:54;;;;;;;12.50;5.45;;;;;;;20.36;58.43;101259.50;5087749;27;20067;-68
2022/10/26 09:26:31;;;;;;;9.20;5.60;;;;;;;20.15;60.12;101253.25;5087971;28;20052;-68
2022/10/26 09:29:02;;;;;;;11.00;4.88;;;;;;;21.14;58.33;101253.63;5100765;27;20047;-68
2022/10/26 09:31:32;;;;;;;9.77;4.57;;;;;;;20.61;57.00;101255.59;5104804;27;20047;-68
2022/10/26 09:34:05;;;;;;;11.98;4.40;;;;;;;21.05;54.94;101251.75;5120355;27;20101;-68
2022/10/26 09:36:31;;;;;;;9.48;4.40;;;;;;;20.09;58.16;101246.63;5111910;27;20478;-68
2022/10/26 09:39:03;;;;;;;7.03;4.05;;;;;;;21.16;57.60;101251.69;5103949;28;20047;-68
2022/10/26 09:41:39;;;;;;;7.10;4.60;;;;;;;21.00;56.14;101252.13;5101369;27;20426;-68
2022/10/26 09:44:12;;;;;;;10.07;4.43;;;;;;;20.66;55.98;101254.19;5094768;27;20036;-68
2022/10/26 09:46:55;;;;;;;9.80;4.00;;;;;;;20.76;56.86;101259.59;5118343;27;20527;-68
2022/10/26 09:49:25;;;;;;;;;;;;;;;20.52;56.69;101248.38;5111574;27;20042;-68
2022/10/26 09:51:51;;;;;;;7.85;3.90;;;;;;;20.11;58.35;101246.50;5105345;28;19930;-68
2022/10/26 09:54:20;;;;;;;7.88;3.85;;;;;;;20.83;55.92;101258.09;5121977;27;20039;-68
2022/10/26 09:56:53;;;;;;;6.85;3.75;;;;;;;20.83;54.81;101255.44;5123108;27;20043;-68
2022/10/26 09:59:22;;;;;;;9.95;4.30;;;;;;;21.10;55.42;101258.34;5104990;28;20050;-68
2022/10/26 10:01:49;;;;;;;7.63;3.90;;;;;;;20.83;56.15;101263.44;5105514;28;20078;-68
2022/10/26 10:04:21;;;;;;;8.60;3.95;;;;;;;20.65;55.75;101275.66;5104740;28;20502;-68
2022/10/26 10:06:48;;;;;;;;;;;;;;;20.18;57.21;101260.97;5110406;28;20514;-67
2022/10/26 10:09:16;;;;;;;6.60;3.35;;;;;;;20.85;56.89;101259.66;5112735;27;19934;-67
2022/10/26 10:11:46;;;;;;;6.40;3.33;;;;;;;21.29;53.82;101263.78;5125645;27;20049;-67
2022/10/26 10:14:17;;;;;;;8.98;3.40;;;;;;;22.28;54.58;101252.97;5097441;27;20047;-67
2022/10/26 10:16:51;;;;;;;7.75;2.95;;;;;;;23.08;53.23;101254.38;5102996;28;20122;-67
2022/10/26 10:19:23;;;;;;;8.00;3.20;;;;;;;23.42;49.41;101247.47;5104175;28;20039;-67
2022/10/26 10:21:54;;;;;;;6.90;2.92;;;;;;;22.86;49.78;101252.06;5095935;28;20130;-68
2022/10/26 10:24:24;;;;;;;7.95;3.42;;;;;;;22.81;51.33;101260.50;5120542;28;20411;-67
2022/10/26 10:27:00;;;;;;;5.90;3.17;;;;;;;22.91;52.00;101255.97;5099949;28;20055;-67
2022/10/26 10:29:29;;;;;;;10.18;3.35;;;;;;;22.90;51.11;101262.31;5096738;28;20440;-67
2022/10/26 10:31:56;;;;;;;8.82;3.40;;;;;;;20.98;54.69;101262.09;5117064;27;20047;-67
2022/10/26 10:34:23;;;;;;;6.95;3.42;;;;;;;21.39;54.30;101258.50;5109247;28;20044;-67
2022/10/26 10:36:50;;;;;;;5.60;3.05;;;;;;;20.95;55.50;101267.72;5101858;28;21510;-67
2022/10/26 10:39:38;;;;;;;6.15;3.75;;;;;;;19.73;58.77;101260.31;5108751;28;20035;-67
2022/10/26 10:42:13;;;;;;;6.25;3.72;;;;;;;18.73;62.44;101263.03;5101415;27;20052;-67
2022/10/26 10:44:43;;;;;;;8.02;3.75;;;;;;;18.46;64.15;101250.84;5108380;27;20055;-68
2022/10/26 10:47:20;;;;;;;8.10;3.63;;;;;;;18.63;63.47;101254.91;5114300;27;20039;-67
2022/10/26 10:49:52;;;;;;;6.82;4.00;;;;;;;17.69;66.25;101246.09;5107951;27;20108;-68
2022/10/26 10:52:24;;;;;;;11.52;4.20;;;;;;;17.75;69.21;101247.44;5108807;27;20047;-67
2022/10/26 10:55:00;;;;;;;7.15;3.83;;;;;;;18.33;67.12;101252.75;5107221;27;20047;-67
2022/10/26 10:57:32;;;;;;;8.30;3.92;;;;;;;18.60;68.32;101251.63;5106748;27;20062;-67
2022/10/26 11:00:04;;;;;;;8.57;4.35;;;;;;;18.52;64.93;101254.88;5107629;28;20040;-67
2022/10/26 11:03:03;;;;;;;8.00;3.55;;;;;;;18.37;65.06;101256.00;5109050;27;20221;-68
2022/10/26 11:05:58;;;;;;;10.20;3.85;;;;;;;17.47;68.69;101254.75;5088531;28;20040;-67
2022/10/26 11:08:28;;;;;;;12.45;4.88;;;;;;;17.71;68.94;101257.44;5112579;27;20043;-67
2022/10/26 11:11:02;;;;;;;23.60;5.45;;;;;;;18.05;68.07;101266.41;5129870;27;20046;-67
2022/10/26 11:13:36;;;;;;;7.13;4.15;;;;;;;18.20;69.27;101259.94;5114368;27;20039;-67
2022/10/26 11:16:10;;;;;;;8.10;3.72;;;;;;;18.60;67.63;101260.44;5109941;27;20118;-67
2022/10/26 11:18:41;;;;;;;6.85;3.83;;;;;;;18.84;66.17;101265.69;5109979;27;20047;-67
2022/10/26 11:21:19;;;;;;;7.10;3.78;;;;;;;18.62;65.87;101261.19;5108677;27;20096;-67
2022/10/26 11:23:50;;;;;;;6.72;4.03;;;;;;;18.11;68.54;101260.63;5108788;27;20055;-67
2022/10/26 11:26:24;;;;;;;6.38;3.63;;;;;;;18.08;69.19;101258.19;5105911;28;20047;-67
2022/10/26 11:28:56;;;;;;;12.35;4.55;;;;;;;18.55;69.37;101257.28;5109319;27;20059;-67
2022/10/26 11:31:29;;;;;;;7.80;3.60;;;;;;;19.40;67.51;101259.38;5108211;27;20043;-67
2022/10/26 11:34:13;;;;;;;6.47;3.38;;;;;;;19.75;64.53;101261.88;5108205;28;20069;-67